Avoca, Wisconsin
Current Conditions -  °F | °C
As of 9:56 PM on Wednesday 28 Jan 2015 (Local Time) from KLNR Reporting Station
Overcast Overcast  
Wind Chill: 26°   Ceiling: 1700
Heat Index: 33°   Visibility: 9mi
Dew Point: 27°   Wind: 8mph
Humidity: 78%   Direction: 120°ESE
Pressure: 29.79"   Gusts: NA
Location:  43.18°N, 90.32°W
Report Text: KLNR 290356Z AUTO 12007KT 9SM OVC017 01/M03 A2979 RMK AO2 SLP092 T00061028
Loading
Personal Weather Stations






























Interactive Weather Map New forecast layout! Learn more

10-Day Weather Forecast

Advertisements
Track Severe Weather on mobile